Time;durP1;ratioP1;P1;durP2;ratioP2;P2;SDS_P1;SDS_P2;PMS_P1;PMS_P2;Temp;Humidity;BMP_temperature;BMP_pressure;BME280_temperature;BME280_humidity;BME280_pressure;Samples;Min_cycle;Max_cycle;Signal;HPM_P1;HPM_P2
2023/06/06 00:01:36;;;;;;;2.33;1.38;;;;;;;16.04;61.33;94937.91;5149143;27;20283;-70
2023/06/06 00:04:02;;;;;;;3.13;1.60;;;;;;;16.08;61.21;94939.59;5130199;27;20649;-70
2023/06/06 00:06:32;;;;;;;2.60;1.38;;;;;;;16.10;60.54;94942.75;5132614;27;20261;-70
2023/06/06 00:08:59;;;;;;;2.97;1.58;;;;;;;16.08;60.48;94938.78;5151045;27;20208;-70
2023/06/06 00:11:28;;;;;;;3.92;1.55;;;;;;;16.07;60.38;94934.47;5133779;27;20201;-70
2023/06/06 00:13:56;;;;;;;2.42;1.60;;;;;;;16.00;60.23;94932.34;5140809;27;20227;-70
2023/06/06 00:16:23;;;;;;;3.40;1.85;;;;;;;15.96;59.98;94932.28;5132393;27;20225;-70
2023/06/06 00:18:52;;;;;;;1.40;1.00;;;;;;;15.99;59.40;94933.50;5141440;27;20257;-70
2023/06/06 00:21:21;;;;;;;2.55;1.48;;;;;;;15.89;59.84;94937.56;5145770;27;20253;-70
2023/06/06 00:23:47;;;;;;;2.45;1.20;;;;;;;15.89;58.87;94936.78;5130108;27;20257;-70
2023/06/06 00:26:14;;;;;;;3.13;1.42;;;;;;;15.91;58.47;94934.47;5129650;27;20201;-70
2023/06/06 00:28:41;;;;;;;2.90;1.33;;;;;;;15.90;57.96;94932.88;5130053;27;20647;-71
2023/06/06 00:31:08;;;;;;;4.88;1.33;;;;;;;15.96;57.57;94931.50;5133859;27;20241;-70
2023/06/06 00:33:35;;;;;;;4.07;1.73;;;;;;;15.91;57.79;94923.56;5146809;27;20255;-70
2023/06/06 00:36:03;;;;;;;2.53;1.45;;;;;;;15.84;57.90;94917.94;5134999;27;20212;-70
2023/06/06 00:38:30;;;;;;;2.70;0.98;;;;;;;15.82;57.86;94926.47;5133611;27;20225;-70
2023/06/06 00:40:57;;;;;;;2.47;1.48;;;;;;;15.78;57.80;94917.41;5134174;27;20241;-70
2023/06/06 00:43:24;;;;;;;2.42;1.42;;;;;;;15.73;57.69;94916.84;5132966;27;20724;-70
2023/06/06 00:45:52;;;;;;;3.58;1.40;;;;;;;15.62;57.83;94922.84;5133865;27;20212;-70
2023/06/06 00:48:20;;;;;;;2.05;1.35;;;;;;;15.67;57.70;94930.00;5147478;27;20204;-71
2023/06/06 00:50:48;;;;;;;2.17;1.20;;;;;;;15.70;56.94;94923.03;5133979;27;20209;-69
2023/06/06 00:53:16;;;;;;;3.03;1.13;;;;;;;15.67;56.78;94915.56;5133646;27;20232;-70
2023/06/06 00:55:44;;;;;;;2.33;1.45;;;;;;;15.61;57.16;94921.25;5133175;27;20204;-71
2023/06/06 00:58:13;;;;;;;4.68;1.70;;;;;;;15.57;57.06;94925.06;5134127;27;20385;-70
2023/06/06 01:00:41;;;;;;;1.60;1.02;;;;;;;15.54;57.58;94942.91;5141873;27;20200;-70
2023/06/06 01:03:10;;;;;;;2.53;1.30;;;;;;;15.51;57.50;94924.50;5138118;27;20226;-69
2023/06/06 01:05:37;;;;;;;2.10;1.20;;;;;;;15.54;57.42;94921.06;5133284;27;20576;-69
2023/06/06 01:08:04;;;;;;;2.05;1.45;;;;;;;15.53;56.90;94930.41;5149834;27;20265;-70
2023/06/06 01:10:34;;;;;;;1.92;1.10;;;;;;;15.49;56.84;94934.97;5144046;27;20204;-69
2023/06/06 01:13:11;;;;;;;1.45;1.05;;;;;;;15.44;56.38;94932.50;5133116;27;20244;-69
2023/06/06 01:15:45;;;;;;;3.05;0.93;;;;;;;15.42;55.24;94934.81;5133181;27;20671;-70
2023/06/06 01:18:12;;;;;;;1.90;0.93;;;;;;;15.44;55.02;94927.06;5139810;27;20196;-71
2023/06/06 01:20:40;;;;;;;4.88;1.27;;;;;;;15.50;54.12;94924.84;5154025;27;20207;-69
2023/06/06 01:23:10;;;;;;;4.25;1.10;;;;;;;15.53;53.59;94930.41;5139775;27;20298;-71
2023/06/06 01:25:40;;;;;;;3.92;1.58;;;;;;;15.47;53.41;94931.78;5153375;27;20327;-70
2023/06/06 01:28:13;;;;;;;1.02;0.80;;;;;;;15.45;53.08;94939.53;5133349;27;20197;-70
2023/06/06 01:30:41;;;;;;;3.25;1.00;;;;;;;15.43;53.00;94936.38;5132573;27;20236;-70
2023/06/06 01:33:16;;;;;;;5.93;1.60;;;;;;;15.38;53.32;94939.38;5141374;27;20227;-70
2023/06/06 01:36:03;;;;;;;2.97;1.10;;;;;;;15.35;53.89;94931.88;5153535;27;20203;-70
2023/06/06 01:38:36;;;;;;;2.58;1.00;;;;;;;15.27;54.24;94928.19;5153638;27;20228;-71
2023/06/06 01:41:04;;;;;;;1.15;0.82;;;;;;;15.25;54.78;94929.66;5153500;27;20204;-70
2023/06/06 01:43:33;;;;;;;3.30;1.10;;;;;;;15.21;55.17;94926.03;5152715;27;20204;-71
2023/06/06 01:46:01;;;;;;;5.72;1.08;;;;;;;15.16;55.70;94926.31;5153397;27;20212;-71
2023/06/06 01:48:29;;;;;;;10.48;1.27;;;;;;;15.18;56.10;94924.00;5138398;27;20216;-71
2023/06/06 01:50:56;;;;;;;0.63;0.63;;;;;;;15.26;56.17;94928.53;5132745;27;20257;-71
2023/06/06 01:53:22;;;;;;;4.30;1.45;;;;;;;15.24;56.49;94931.59;5131958;27;20452;-71
2023/06/06 01:55:51;;;;;;;5.13;1.65;;;;;;;15.18;57.51;94935.72;5131416;27;20736;-70
2023/06/06 01:58:19;;;;;;;1.58;1.13;;;;;;;15.18;57.58;94934.91;5133241;27;20287;-70
2023/06/06 02:00:46;;;;;;;5.07;1.35;;;;;;;15.24;57.36;94933.53;5152398;27;20196;-70
2023/06/06 02:03:13;;;;;;;2.15;1.30;;;;;;;15.30;57.61;94937.59;5153063;27;20216;-70
2023/06/06 02:05:40;;;;;;;0.80;0.80;;;;;;;15.38;56.93;94933.91;5143940;27;20631;-71
2023/06/06 02:08:07;;;;;;;2.47;1.35;;;;;;;15.31;56.79;94922.78;5132378;27;20261;-69
2023/06/06 02:10:34;;;;;;;1.67;1.00;;;;;;;15.39;56.63;94930.03;5132221;27;20223;-70
2023/06/06 02:13:02;;;;;;;1.38;0.98;;;;;;;15.39;56.71;94940.97;5131457;27;20313;-69
2023/06/06 02:15:29;;;;;;;1.67;1.48;;;;;;;15.38;56.61;94939.38;5131200;27;20197;-70
2023/06/06 02:17:57;;;;;;;3.67;1.08;;;;;;;15.42;56.61;94945.72;5131604;27;20208;-69
2023/06/06 02:20:23;;;;;;;2.22;1.10;;;;;;;15.33;57.05;94942.34;5130934;27;20664;-69
2023/06/06 02:22:50;;;;;;;2.15;0.90;;;;;;;15.23;57.27;94938.19;5131823;27;20282;-69
2023/06/06 02:25:17;;;;;;;1.52;1.00;;;;;;;15.14;57.05;94934.84;5131714;27;20234;-69
2023/06/06 02:27:48;;;;;;;1.63;0.80;;;;;;;15.15;57.33;94944.63;5131583;27;20209;-70
2023/06/06 02:30:16;;;;;;;2.60;1.63;;;;;;;15.13;57.19;94951.56;5131800;27;20491;-70
2023/06/06 02:32:43;;;;;;;2.05;1.05;;;;;;;15.07;57.94;94959.19;5136860;27;20204;-70
2023/06/06 02:35:10;;;;;;;2.63;1.20;;;;;;;14.93;58.31;94956.84;5139892;27;20381;-70
2023/06/06 02:37:37;;;;;;;2.08;0.90;;;;;;;14.93;58.04;94945.94;5131411;27;20278;-70
2023/06/06 02:40:08;;;;;;;1.50;0.90;;;;;;;14.84;58.29;94960.88;5131754;27;20234;-69
2023/06/06 02:42:35;;;;;;;2.97;1.00;;;;;;;14.77;58.56;94964.19;5141993;27;20447;-70
2023/06/06 02:45:02;;;;;;;4.28;1.40;;;;;;;14.72;58.67;94958.19;5144737;27;20561;-70
2023/06/06 02:47:30;;;;;;;5.32;1.33;;;;;;;14.65;58.81;94966.16;5145519;27;20205;-71
2023/06/06 02:49:57;;;;;;;4.03;1.20;;;;;;;14.63;59.03;94958.31;5145452;27;20299;-70
2023/06/06 02:52:24;;;;;;;1.30;0.95;;;;;;;14.63;58.57;94960.25;5143097;27;20201;-70
2023/06/06 02:54:51;;;;;;;4.57;1.27;;;;;;;14.54;59.42;94971.28;5145425;27;20312;-70
2023/06/06 02:57:17;;;;;;;1.48;1.10;;;;;;;14.51;59.32;94970.03;5145047;27;20242;-70
2023/06/06 02:59:44;;;;;;;2.88;1.40;;;;;;;14.48;59.49;94961.78;5145095;27;20253;-70
2023/06/06 03:02:11;;;;;;;1.88;1.10;;;;;;;14.54;59.18;94965.84;5142218;27;20191;-70
2023/06/06 03:04:40;;;;;;;1.90;1.30;;;;;;;14.63;59.47;94965.69;5140343;27;20199;-70
2023/06/06 03:07:10;;;;;;;2.00;1.10;;;;;;;14.66;59.22;94963.06;5142015;27;20900;-70
2023/06/06 03:09:36;;;;;;;1.77;1.10;;;;;;;14.71;59.06;94965.56;5142533;27;20220;-70
2023/06/06 03:12:04;;;;;;;1.95;1.20;;;;;;;14.62;59.48;94959.47;5141398;27;20254;-70
2023/06/06 03:14:30;;;;;;;2.10;1.20;;;;;;;14.86;58.49;94969.50;5142691;27;20224;-70
2023/06/06 03:16:58;;;;;;;2.38;1.38;;;;;;;15.23;57.24;94967.41;5141043;27;20694;-70
2023/06/06 03:19:24;;;;;;;3.67;1.23;;;;;;;15.78;56.45;94979.44;5136131;27;20219;-70
2023/06/06 03:21:52;;;;;;;5.80;1.20;;;;;;;16.21;55.07;94965.66;5130388;27;20656;-70
2023/06/06 03:24:19;;;;;;;6.88;1.38;;;;;;;16.47;54.45;94956.09;5130775;27;20257;-68
2023/06/06 03:26:47;;;;;;;3.05;1.60;;;;;;;17.01;53.11;94970.59;5130694;27;20196;-70
2023/06/06 03:29:14;;;;;;;1.73;1.23;;;;;;;17.46;51.55;94955.44;5131089;27;20197;-69
2023/06/06 03:31:41;;;;;;;2.42;1.23;;;;;;;17.43;51.71;94958.88;5130531;27;20280;-70
2023/06/06 03:34:08;;;;;;;4.13;1.60;;;;;;;16.95;53.63;94961.06;5144124;27;20233;-69
2023/06/06 03:36:35;;;;;;;4.13;1.30;;;;;;;17.00;53.38;94963.53;5130299;27;20213;-68
2023/06/06 03:39:04;;;;;;;1.80;1.20;;;;;;;16.99;53.04;94967.41;5148514;27;20220;-70
2023/06/06 03:41:31;;;;;;;2.55;1.45;;;;;;;17.86;51.99;94959.69;5139758;27;20211;-69
2023/06/06 03:43:59;;;;;;;1.75;1.15;;;;;;;19.07;49.34;94952.09;5140430;27;20651;-69
2023/06/06 03:46:26;;;;;;;5.32;2.20;;;;;;;19.96;47.55;94952.28;5148961;27;20196;-69
2023/06/06 03:48:53;;;;;;;2.30;1.27;;;;;;;20.02;46.01;94950.78;5145980;27;20212;-69
2023/06/06 03:51:19;;;;;;;5.93;1.63;;;;;;;20.45;46.02;94958.22;5150305;27;20212;-69
2023/06/06 03:53:46;;;;;;;7.10;2.47;;;;;;;21.03;44.31;94962.13;5146210;27;20205;-70
2023/06/06 03:56:15;;;;;;;3.83;2.30;;;;;;;21.41;43.27;94946.94;5137450;27;20430;-70
2023/06/06 03:58:42;;;;;;;2.25;1.60;;;;;;;21.43;44.02;94950.09;5149581;27;20252;-70
2023/06/06 04:01:09;;;;;;;4.07;1.77;;;;;;;;;;5146737;27;20200;-70
2023/06/06 04:03:37;;;;;;;3.90;1.60;;;;;;;22.01;41.62;94951.81;5131472;27;20200;-70
2023/06/06 04:06:04;;;;;;;4.78;1.85;;;;;;;22.55;41.37;94948.66;5150168;27;20283;-70
2023/06/06 04:08:31;;;;;;;7.05;1.83;;;;;;;22.83;40.52;94947.06;5150477;27;20204;-71
2023/06/06 04:10:58;;;;;;;3.30;1.77;;;;;;;22.77;39.75;94948.66;5144099;27;20196;-71
2023/06/06 04:13:26;;;;;;;4.15;1.40;;;;;;;22.13;41.39;94954.22;5138978;27;20687;-70
2023/06/06 04:15:53;;;;;;;3.35;1.73;;;;;;;22.10;41.66;94955.78;5144787;27;20274;-70
2023/06/06 04:18:20;;;;;;;2.58;1.27;;;;;;;21.75;41.70;94945.44;5142451;27;20204;-70
2023/06/06 04:20:47;;;;;;;1.88;1.50;;;;;;;22.12;42.04;94952.63;5131787;27;20647;-70
2023/06/06 04:23:14;;;;;;;2.92;1.50;;;;;;;22.37;40.60;94952.63;5142452;27;20195;-70
2023/06/06 04:25:40;;;;;;;2.05;1.50;;;;;;;22.41;40.56;94956.97;5138544;27;20196;-71
2023/06/06 04:28:08;;;;;;;5.25;1.88;;;;;;;23.77;39.38;94947.13;5142674;27;20204;-71
2023/06/06 04:30:36;;;;;;;3.90;1.45;;;;;;;24.13;38.96;94955.19;5128026;27;20239;-71
2023/06/06 04:33:05;;;;;;;7.25;1.70;;;;;;;24.18;38.46;94950.03;5138128;27;20196;-71
2023/06/06 04:35:31;;;;;;;3.03;1.90;;;;;;;24.34;38.23;94949.50;5135549;27;20228;-71
2023/06/06 04:37:58;;;;;;;2.50;1.55;;;;;;;24.97;37.44;94945.41;5140667;27;20225;-70
2023/06/06 04:40:32;;;;;;;2.70;1.63;;;;;;;25.23;37.48;94955.00;5128671;27;20599;-71
2023/06/06 04:43:01;;;;;;;2.53;1.85;;;;;;;25.67;36.46;94945.78;5129170;27;20204;-70
2023/06/06 04:45:27;;;;;;;3.88;2.00;;;;;;;25.22;37.68;94947.88;5128961;27;20609;-70
2023/06/06 04:47:57;;;;;;;3.55;1.65;;;;;;;25.43;35.96;94960.69;5129131;27;20257;-70
2023/06/06 04:50:24;;;;;;;7.10;2.03;;;;;;;25.61;35.89;94958.53;5147120;27;20659;-71
2023/06/06 04:52:51;;;;;;;4.03;1.80;;;;;;;25.03;35.12;94951.25;5138855;27;20639;-70
2023/06/06 04:55:18;;;;;;;4.97;1.70;;;;;;;24.95;35.83;94958.09;5129627;27;20233;-70
2023/06/06 04:57:44;;;;;;;4.40;1.77;;;;;;;25.54;35.44;94947.50;5129454;27;20208;-70
2023/06/06 05:00:13;;;;;;;3.83;1.58;;;;;;;24.86;35.88;94950.25;5130243;27;20571;-70
2023/06/06 05:02:40;;;;;;;6.05;1.70;;;;;;;24.10;36.92;94940.97;5129564;27;20390;-70
2023/06/06 05:05:10;;;;;;;2.20;1.48;;;;;;;23.15;38.35;94958.03;5129526;27;20205;-70
2023/06/06 05:07:37;;;;;;;5.97;1.80;;;;;;;23.94;36.91;94953.72;5129612;27;20209;-70
2023/06/06 05:10:04;;;;;;;3.60;1.55;;;;;;;25.40;36.95;94954.03;5129342;27;20205;-70
2023/06/06 05:12:31;;;;;;;6.00;1.95;;;;;;;24.98;37.63;94954.50;5142167;27;20200;-70
2023/06/06 05:14:58;;;;;;;5.07;2.20;;;;;;;24.48;39.25;94954.13;5130569;27;20232;-71
2023/06/06 05:17:27;;;;;;;6.25;2.22;;;;;;;24.24;40.19;94951.16;5133623;27;20221;-71
2023/06/06 05:19:55;;;;;;;5.85;2.50;;;;;;;24.85;37.87;94956.97;5133035;27;20304;-71
2023/06/06 05:22:23;;;;;;;8.30;2.50;;;;;;;24.27;39.91;94949.56;5133438;27;20211;-71
2023/06/06 05:24:50;;;;;;;5.57;2.35;;;;;;;24.33;39.84;94959.00;5132929;27;20292;-71
2023/06/06 05:27:17;;;;;;;4.97;2.08;;;;;;;24.27;39.00;94955.13;5133589;27;20564;-71
2023/06/06 05:29:43;;;;;;;3.75;1.83;;;;;;;23.93;39.44;94960.44;5139682;27;20587;-71
2023/06/06 05:32:12;;;;;;;8.27;2.25;;;;;;;25.38;38.73;94961.19;5153852;27;20233;-71
2023/06/06 05:34:40;;;;;;;4.93;2.28;;;;;;;24.59;39.77;94955.63;5145599;27;20233;-71
2023/06/06 05:37:07;;;;;;;8.65;3.03;;;;;;;24.13;39.96;94955.19;5132797;27;20228;-71
2023/06/06 05:39:35;;;;;;;9.65;2.47;;;;;;;24.84;38.93;94957.38;5132583;27;20208;-71
2023/06/06 05:42:02;;;;;;;5.50;2.10;;;;;;;24.66;37.77;94969.41;5148334;27;20196;-71
2023/06/06 05:44:29;;;;;;;2.58;1.95;;;;;;;24.95;37.93;94950.56;5144271;27;20244;-71
2023/06/06 05:46:56;;;;;;;5.45;1.95;;;;;;;25.40;37.44;94962.34;5131935;27;20200;-71
2023/06/06 05:49:23;;;;;;;4.55;1.83;;;;;;;26.14;35.39;94945.88;5132064;27;20288;-70
2023/06/06 05:51:50;;;;;;;3.67;2.00;;;;;;;26.29;34.42;94958.38;5131748;27;20207;-70
2023/06/06 05:54:17;;;;;;;5.43;1.95;;;;;;;27.85;33.68;94949.94;5131890;27;20208;-71
2023/06/06 05:56:45;;;;;;;5.05;1.75;;;;;;;26.95;35.75;94945.78;5148042;27;20972;-71
2023/06/06 05:59:12;;;;;;;3.30;1.80;;;;;;;27.75;33.24;94939.03;5152067;27;20247;-71
2023/06/06 06:01:41;;;;;;;4.75;2.10;;;;;;;26.53;34.90;94939.72;5150315;27;20204;-69
2023/06/06 06:04:08;;;;;;;3.03;1.83;;;;;;;26.08;35.16;94942.81;5132140;27;20201;-69
2023/06/06 06:06:37;;;;;;;4.72;1.95;;;;;;;25.93;35.71;94944.22;5135463;27;20291;-71
2023/06/06 06:09:04;;;;;;;3.38;1.73;;;;;;;25.57;36.57;94946.66;5153238;27;20209;-71
2023/06/06 06:11:30;;;;;;;6.20;2.15;;;;;;;25.45;37.18;94945.22;5135465;27;20246;-71
2023/06/06 06:13:59;;;;;;;3.20;2.03;;;;;;;25.57;37.26;94945.88;5132100;27;20211;-71
2023/06/06 06:16:26;;;;;;;6.32;1.90;;;;;;;27.39;36.71;94936.97;5131857;27;20240;-71
2023/06/06 06:18:52;;;;;;;3.53;1.60;;;;;;;26.85;35.62;94939.97;5132227;27;20749;-71
2023/06/06 06:21:21;;;;;;;6.50;2.00;;;;;;;27.01;35.06;94939.31;5136902;27;20715;-71
2023/06/06 06:23:49;;;;;;;5.13;1.95;;;;;;;27.76;34.33;94940.59;5140853;27;20567;-70
2023/06/06 06:26:16;;;;;;;5.70;2.50;;;;;;;27.27;35.09;94937.63;5131208;27;20201;-71
2023/06/06 06:28:43;;;;;;;4.03;2.00;;;;;;;28.01;33.54;94940.06;5131194;27;20203;-71
2023/06/06 06:31:11;;;;;;;7.82;1.83;;;;;;;27.67;34.70;94932.06;5131471;27;20240;-71
2023/06/06 06:33:38;;;;;;;2.80;1.80;;;;;;;28.88;33.38;94930.78;5144978;27;20276;-71
2023/06/06 06:36:06;;;;;;;5.43;1.90;;;;;;;29.87;31.74;94932.81;5132222;27;20232;-71
2023/06/06 06:38:32;;;;;;;8.35;2.20;;;;;;;30.17;31.43;94928.72;5131521;27;20224;-71
2023/06/06 06:40:59;;;;;;;4.30;1.80;;;;;;;28.51;32.67;94925.75;5131796;27;20641;-71
2023/06/06 06:43:26;;;;;;;6.88;2.30;;;;;;;28.40;33.02;94928.03;5131532;27;20201;-71
2023/06/06 06:45:53;;;;;;;2.67;1.80;;;;;;;29.58;31.85;94929.28;5131212;27;20269;-71
2023/06/06 06:48:21;;;;;;;3.33;1.92;;;;;;;29.19;31.47;94922.00;5130827;27;20201;-71
2023/06/06 06:50:47;;;;;;;2.67;1.75;;;;;;;27.51;33.34;94927.97;5130793;27;20205;-71
2023/06/06 06:53:16;;;;;;;4.05;2.50;;;;;;;27.27;34.55;94925.69;5130667;27;20247;-70
2023/06/06 06:55:44;;;;;;;3.42;2.20;;;;;;;27.94;33.38;94924.28;5130521;27;20228;-70
2023/06/06 06:58:13;;;;;;;2.63;1.58;;;;;;;27.86;32.83;94918.09;5130918;27;20449;-70
2023/06/06 07:00:40;;;;;;;2.58;1.70;;;;;;;27.48;34.15;94926.03;5151237;27;20295;-71
2023/06/06 07:03:08;;;;;;;3.30;1.83;;;;;;;28.43;33.67;94927.16;5151661;27;20309;-70
2023/06/06 07:05:36;;;;;;;6.22;2.05;;;;;;;29.94;31.71;94920.63;5143281;27;20205;-71
2023/06/06 07:08:03;;;;;;;7.40;2.00;;;;;;;31.05;30.24;94919.41;5131178;27;20275;-70
2023/06/06 07:10:31;;;;;;;3.08;2.00;;;;;;;28.84;31.47;94930.09;5130842;27;20663;-70
2023/06/06 07:12:58;;;;;;;4.97;1.85;;;;;;;28.29;32.84;94922.72;5147398;27;20196;-71
2023/06/06 07:15:25;;;;;;;6.25;1.77;;;;;;;28.51;33.44;94917.41;5142214;27;20263;-70
2023/06/06 07:17:52;;;;;;;3.40;2.08;;;;;;;28.01;34.05;94926.94;5130650;27;20204;-70
2023/06/06 07:20:21;;;;;;;3.50;2.03;;;;;;;27.16;34.55;94928.69;5130860;27;20212;-70
2023/06/06 07:22:50;;;;;;;3.80;2.60;;;;;;;26.99;35.67;94927.03;5130834;27;20740;-70
2023/06/06 07:25:17;;;;;;;3.47;2.15;;;;;;;27.54;35.10;94929.91;5130735;27;20201;-72
2023/06/06 07:27:44;;;;;;;5.63;2.15;;;;;;;28.36;34.02;94932.91;5131050;27;20209;-71
2023/06/06 07:30:13;;;;;;;5.90;2.25;;;;;;;27.13;34.55;94926.75;5130475;27;20236;-72
2023/06/06 07:32:41;;;;;;;4.30;2.13;;;;;;;26.36;35.91;94924.94;5135495;27;20196;-70
2023/06/06 07:35:09;;;;;;;3.03;1.83;;;;;;;26.43;37.96;94924.81;5139152;27;20757;-70
2023/06/06 07:37:37;;;;;;;6.68;2.33;;;;;;;26.59;36.99;94932.50;5129996;27;20216;-70
2023/06/06 07:40:07;;;;;;;2.60;1.80;;;;;;;27.51;35.55;94924.41;5130302;27;20240;-71
2023/06/06 07:42:35;;;;;;;2.38;1.90;;;;;;;28.04;34.74;94916.91;5130253;27;20672;-70
2023/06/06 07:45:02;;;;;;;7.00;2.15;;;;;;;26.78;35.97;94920.66;5130671;27;20231;-70
2023/06/06 07:47:28;;;;;;;3.88;2.20;;;;;;;26.14;36.93;94923.66;5150781;27;20408;-70
2023/06/06 07:49:55;;;;;;;3.78;2.05;;;;;;;27.35;35.45;94922.34;5136976;27;20217;-70
2023/06/06 07:52:22;;;;;;;3.55;2.42;;;;;;;26.98;35.56;94931.03;5130334;27;20220;-70
2023/06/06 07:54:49;;;;;;;3.17;2.00;;;;;;;26.83;35.65;94925.69;5130224;27;20265;-70
2023/06/06 07:57:17;;;;;;;7.88;2.58;;;;;;;26.73;36.04;94926.69;5136896;27;20251;-70
2023/06/06 07:59:45;;;;;;;4.50;2.45;;;;;;;26.41;36.35;94923.66;5136791;27;20200;-70
2023/06/06 08:02:14;;;;;;;3.20;2.28;;;;;;;27.23;35.73;94922.97;5130162;27;20318;-70
2023/06/06 08:04:41;;;;;;;2.95;2.08;;;;;;;26.63;36.31;94922.09;5130165;27;20288;-69
2023/06/06 08:07:09;;;;;;;5.43;2.15;;;;;;;27.03;36.83;94920.19;5130191;27;20208;-69
2023/06/06 08:09:36;;;;;;;5.50;2.22;;;;;;;28.05;36.01;94918.47;5130007;27;20664;-70
2023/06/06 08:12:05;;;;;;;4.72;2.10;;;;;;;28.76;34.05;94917.53;5130373;27;20277;-69
2023/06/06 08:14:33;;;;;;;7.20;2.17;;;;;;;28.70;33.17;94919.28;5130094;27;20205;-69
2023/06/06 08:17:00;;;;;;;3.22;1.85;;;;;;;27.23;34.54;94928.53;5130327;27;20225;-71
2023/06/06 08:19:27;;;;;;;3.45;2.30;;;;;;;27.77;35.89;94925.47;5132367;27;20205;-70
2023/06/06 08:21:54;;;;;;;3.35;2.30;;;;;;;27.19;36.05;94920.28;5150908;27;20260;-69
2023/06/06 08:24:21;;;;;;;5.20;2.25;;;;;;;26.73;36.26;94925.91;5134279;27;20203;-70
2023/06/06 08:26:48;;;;;;;5.53;2.30;;;;;;;27.30;37.21;94925.63;5139640;27;20733;-70
2023/06/06 08:29:15;;;;;;;5.65;1.92;;;;;;;27.25;35.67;94917.78;5147400;27;20257;-69
2023/06/06 08:31:44;;;;;;;7.95;2.30;;;;;;;27.29;36.57;94924.06;5129745;27;20201;-71
2023/06/06 08:34:11;;;;;;;4.95;2.20;;;;;;;27.56;35.47;94916.38;5143596;27;20205;-71
2023/06/06 08:36:38;;;;;;;7.68;2.65;;;;;;;26.06;38.16;94923.00;5129432;27;20289;-71
2023/06/06 08:39:06;;;;;;;7.93;2.17;;;;;;;25.77;37.53;94922.63;5134204;27;20208;-71
2023/06/06 08:41:33;;;;;;;5.85;2.17;;;;;;;26.61;37.01;94913.41;5150449;27;20257;-70
2023/06/06 08:44:01;;;;;;;5.30;3.00;;;;;;;26.49;37.37;94916.78;5131625;27;20607;-70
2023/06/06 08:46:32;;;;;;;4.43;2.50;;;;;;;26.54;37.67;94919.06;5129421;27;20757;-70
2023/06/06 08:49:04;;;;;;;4.65;2.47;;;;;;;26.60;37.02;94911.81;5129869;27;20201;-70
2023/06/06 08:51:31;;;;;;;4.30;2.40;;;;;;;25.80;37.91;94915.47;5132481;27;20207;-70
2023/06/06 08:54:00;;;;;;;10.00;2.53;;;;;;;25.38;39.79;94914.81;5140344;27;20204;-70
2023/06/06 08:56:27;;;;;;;3.78;2.22;;;;;;;25.06;39.78;94911.63;5154096;27;20726;-69
2023/06/06 08:58:54;;;;;;;5.15;2.63;;;;;;;26.11;38.11;94903.06;5147436;27;20263;-70
2023/06/06 09:01:22;;;;;;;4.25;2.60;;;;;;;26.05;39.35;94899.22;5133181;27;20286;-69
2023/06/06 09:03:53;;;;;;;3.38;2.53;;;;;;;24.97;40.78;94914.13;5133216;27;20234;-69
2023/06/06 09:06:21;;;;;;;6.65;2.72;;;;;;;24.72;41.21;94911.59;5133675;27;20201;-70
2023/06/06 09:08:49;;;;;;;6.45;2.35;;;;;;;24.91;41.30;94910.19;5133320;27;20208;-71
2023/06/06 09:11:16;;;;;;;5.82;2.13;;;;;;;25.17;41.88;94898.41;5133181;27;20236;-70
2023/06/06 09:13:44;;;;;;;7.38;2.47;;;;;;;25.98;41.21;94888.19;5133295;27;20212;-71
2023/06/06 09:16:10;;;;;;;4.70;2.28;;;;;;;26.10;40.67;94884.06;5134950;27;20232;-70
2023/06/06 09:18:38;;;;;;;5.60;2.78;;;;;;;24.92;41.48;94881.25;5144779;27;20290;-70
2023/06/06 09:21:05;;;;;;;4.38;2.53;;;;;;;24.72;43.34;94884.66;5133133;27;20262;-71
2023/06/06 09:23:34;;;;;;;5.93;2.40;;;;;;;24.66;43.12;94883.53;5143102;27;20271;-70
2023/06/06 09:26:00;;;;;;;6.88;2.63;;;;;;;24.37;43.37;94887.75;5150846;27;20249;-71
2023/06/06 09:28:37;;;;;;;6.90;3.10;;;;;;;24.68;44.16;94883.13;5133086;27;20933;-70
2023/06/06 09:31:22;;;;;;;3.55;2.42;;;;;;;24.39;43.75;94891.69;5132887;27;20272;-71
2023/06/06 09:33:49;;;;;;;3.17;2.55;;;;;;;25.13;43.24;94879.06;5146629;27;20753;-70
2023/06/06 09:36:15;;;;;;;5.28;2.78;;;;;;;25.38;42.77;94869.63;5132633;27;20237;-71
2023/06/06 09:38:44;;;;;;;3.88;2.53;;;;;;;24.66;43.74;94883.53;5147858;27;20616;-71
2023/06/06 09:41:10;;;;;;;2.97;2.42;;;;;;;24.46;45.26;94879.00;5145322;27;20209;-71
2023/06/06 09:43:37;;;;;;;6.20;2.75;;;;;;;24.78;44.83;94876.66;5147864;27;20200;-71
2023/06/06 09:46:05;;;;;;;5.35;3.00;;;;;;;25.14;45.05;94868.75;5145148;27;20216;-71
2023/06/06 09:48:33;;;;;;;7.40;2.53;;;;;;;26.02;43.58;94866.72;5132255;27;20666;-71
2023/06/06 09:51:00;;;;;;;7.53;2.47;;;;;;;25.97;42.27;94864.41;5131656;27;20200;-71
2023/06/06 09:53:30;;;;;;;5.28;2.47;;;;;;;25.86;41.83;94852.69;5131667;27;20205;-70
2023/06/06 09:56:04;;;;;;;6.63;2.30;;;;;;;26.48;42.32;94859.63;5131891;27;20745;-71
2023/06/06 09:58:32;;;;;;;5.13;2.55;;;;;;;25.94;43.39;94853.38;5135355;27;20282;-71
2023/06/06 10:00:59;;;;;;;3.53;2.85;;;;;;;26.13;42.45;94850.66;5152300;27;20289;-71
2023/06/06 10:03:27;;;;;;;3.63;2.53;;;;;;;25.73;42.74;94854.50;5152893;27;20280;-70
2023/06/06 10:05:54;;;;;;;3.70;2.50;;;;;;;26.02;43.56;94838.97;5153084;27;20287;-71
2023/06/06 10:08:21;;;;;;;6.43;2.85;;;;;;;26.66;42.09;94837.06;5152873;27;20201;-71
2023/06/06 10:10:50;;;;;;;4.45;3.03;;;;;;;25.82;43.71;94840.88;5152499;27;20307;-71
2023/06/06 10:13:19;;;;;;;3.70;2.65;;;;;;;25.32;43.71;94841.56;5134833;27;20205;-70
2023/06/06 10:15:47;;;;;;;4.65;3.00;;;;;;;25.79;44.23;94833.38;5132109;27;20636;-71
2023/06/06 10:18:14;;;;;;;4.40;2.90;;;;;;;26.13;43.13;94834.00;5136920;27;20679;-70
2023/06/06 10:20:41;;;;;;;4.15;2.85;;;;;;;25.68;43.43;94835.56;5140600;27;20229;-71
2023/06/06 10:23:08;;;;;;;7.03;2.97;;;;;;;25.43;44.58;94836.66;5131925;27;20722;-70
2023/06/06 10:25:37;;;;;;;4.97;2.78;;;;;;;24.58;45.74;94848.78;5132302;27;20205;-71
2023/06/06 10:28:09;;;;;;;5.55;2.97;;;;;;;24.79;44.67;94823.59;5132011;27;20212;-71
2023/06/06 10:30:54;;;;;;;6.43;2.58;;;;;;;24.96;45.16;94818.28;5131560;27;20771;-70
2023/06/06 10:33:32;;;;;;;3.80;2.58;;;;;;;25.53;44.31;94817.50;5142334;27;20647;-70
2023/06/06 10:36:02;;;;;;;5.63;2.53;;;;;;;25.73;42.88;94823.97;5152490;27;20224;-71
2023/06/06 10:38:29;;;;;;;5.43;2.90;;;;;;;26.12;43.87;94821.31;5152275;27;20287;-71
2023/06/06 10:40:58;;;;;;;5.40;2.67;;;;;;;25.07;43.92;94830.81;5152383;27;20201;-71
2023/06/06 10:43:55;;;;;;;3.83;2.28;;;;;;;25.40;44.01;94809.78;5152183;27;20215;-71
2023/06/06 10:46:24;;;;;;;3.53;2.40;;;;;;;25.53;43.61;94806.41;5141836;27;20253;-70
2023/06/06 10:48:58;;;;;;;4.70;2.70;;;;;;;25.37;44.08;94815.34;5130915;27;20639;-71
2023/06/06 10:51:34;;;;;;;5.00;2.72;;;;;;;24.78;44.49;94812.94;5130470;27;20291;-70
2023/06/06 10:54:20;;;;;;;4.00;2.75;;;;;;;24.90;43.94;94806.84;5137790;27;20804;-70
2023/06/06 10:56:49;;;;;;;3.35;2.50;;;;;;;24.94;44.65;94809.59;5149339;27;20219;-70
2023/06/06 10:59:16;;;;;;;4.22;2.50;;;;;;;25.04;44.36;94800.34;5140973;27;20211;-71
2023/06/06 11:01:45;;;;;;;5.90;2.55;;;;;;;25.06;45.08;94795.19;5135145;27;20213;-70
2023/06/06 11:04:19;;;;;;;4.60;2.42;;;;;;;24.62;44.28;94805.19;5131087;27;20205;-70
2023/06/06 11:06:47;;;;;;;4.43;2.60;;;;;;;24.82;45.43;94769.34;5149139;27;20210;-70
2023/06/06 11:09:19;;;;;;;3.60;2.40;;;;;;;24.91;43.72;94777.91;5140123;27;20569;-70
2023/06/06 11:11:47;;;;;;;7.18;2.40;;;;;;;24.90;42.78;94786.66;5131208;27;20285;-70
2023/06/06 11:14:14;;;;;;;3.67;2.67;;;;;;;24.45;43.95;94767.41;5130722;27;20234;-71
2023/06/06 11:17:13;;;;;;;4.35;2.35;;;;;;;24.65;44.37;94781.41;5130872;27;20255;-70
2023/06/06 11:19:40;;;;;;;2.75;2.17;;;;;;;24.86;43.78;94772.06;5130942;27;20724;-70
2023/06/06 11:22:20;;;;;;;7.22;2.35;;;;;;;24.48;43.74;94780.41;5130693;27;20207;-70
2023/06/06 11:24:46;;;;;;;9.48;2.80;;;;;;;24.52;44.56;94778.41;5130847;27;20203;-70
2023/06/06 11:27:16;;;;;;;3.65;2.40;;;;;;;24.74;44.27;94767.84;5130682;27;20603;-70
2023/06/06 11:29:43;;;;;;;6.30;2.65;;;;;;;24.52;44.28;94764.56;5130190;27;20241;-70
2023/06/06 11:32:11;;;;;;;3.65;2.65;;;;;;;24.92;43.30;94762.06;5131088;27;20212;-70
2023/06/06 11:34:40;;;;;;;4.45;2.80;;;;;;;25.14;42.96;94753.09;5143463;27;20258;-71
2023/06/06 11:37:08;;;;;;;6.47;2.20;;;;;;;25.05;43.38;94761.13;5131794;27;20293;-70
2023/06/06 11:39:35;;;;;;;4.55;2.42;;;;;;;24.58;43.48;94760.13;5151153;27;20206;-70